Time;durP1;ratioP1;P1;durP2;ratioP2;P2;SDS_P1;SDS_P2;PMS_P1;PMS_P2;Temp;Humidity;BMP_temperature;BMP_pressure;BME280_temperature;BME280_humidity;BME280_pressure;Samples;Min_cycle;Max_cycle;Signal;HPM_P1;HPM_P2
2021/04/15 03:00:40;;;;;;;21.82;17.25;;;;;;;3.61;100.00;100277.19;1759981;77;21068;-69
2021/04/15 03:03:12;;;;;;;23.27;17.60;;;;;;;3.92;100.00;100274.91;1767926;79;22498;-70
2021/04/15 03:05:42;;;;;;;;;;;;;;;4.17;100.00;100276.88;1757666;81;21580;-70
2021/04/15 03:08:10;;;;;;;42.23;30.12;;;;;;;4.46;100.00;100281.91;1783648;80;20154;-69
2021/04/15 03:10:49;;;;;;;45.17;30.82;;;;;;;4.66;100.00;100283.09;1758442;80;21220;-69
2021/04/15 03:13:24;;;;;;;40.80;29.95;;;;;;;4.87;100.00;100286.25;1740333;82;22133;-69
2021/04/15 03:16:03;;;;;;;42.98;30.52;;;;;;;5.16;100.00;100291.72;1745109;80;21241;-64
2021/04/15 03:18:55;;;;;;;41.08;28.47;;;;;;;5.49;100.00;100292.35;1744873;82;21209;-67
2021/04/15 03:21:35;;;;;;;38.20;29.40;;;;;;;5.94;100.00;100296.56;1711721;82;21143;-65
2021/04/15 03:24:24;;;;;;;39.50;30.25;;;;;;;6.43;100.00;100292.95;1747005;82;21585;-69
2021/04/15 03:27:16;;;;;;;38.65;28.73;;;;;;;7.00;100.00;100285.37;1757645;80;22136;-65
2021/04/15 03:30:11;;;;;;;35.13;26.30;;;;;;;7.71;100.00;100287.05;1760749;81;21535;-71
2021/04/15 03:32:55;;;;;;;35.08;26.52;;;;;;;8.39;100.00;100290.50;1750278;80;21481;-70
2021/04/15 03:35:33;;;;;;;30.87;25.83;;;;;;;9.04;100.00;100284.67;1764601;81;21066;-70
2021/04/15 03:38:15;;;;;;;36.60;27.83;;;;;;;9.53;100.00;100279.92;1739895;82;21337;-70
2021/04/15 03:40:46;;;;;;;29.37;24.80;;;;;;;10.04;100.00;100278.81;1733018;80;21332;-70
2021/04/15 03:43:26;;;;;;;31.17;24.63;;;;;;;10.64;100.00;100271.78;1757718;81;21419;-70
2021/04/15 03:46:25;;;;;;;32.17;23.98;;;;;;;11.26;100.00;100271.23;1729858;81;21211;-71
2021/04/15 03:49:08;;;;;;;32.07;24.83;;;;;;;11.79;100.00;100269.05;1689482;84;21655;-66
2021/04/15 03:51:43;;;;;;;29.13;22.27;;;;;;;12.04;100.00;100261.59;1776274;80;22530;-69
2021/04/15 03:54:14;;;;;;;32.50;22.60;;;;;;;11.84;100.00;100254.14;1767211;80;21868;-69
2021/04/15 03:56:54;;;;;;;28.67;20.50;;;;;;;11.41;100.00;100262.84;1773403;79;21202;-67
2021/04/15 03:59:53;;;;;;;30.00;21.33;;;;;;;10.96;100.00;100257.00;1763029;80;21098;-71
2021/04/15 04:02:38;;;;;;;31.40;20.57;;;;;;;10.55;100.00;100258.55;1776106;79;21837;-72
2021/04/15 04:05:26;;;;;;;28.77;20.63;;;;;;;10.13;100.00;100259.49;1747140;81;21924;-71
2021/04/15 04:07:59;;;;;;;26.50;20.40;;;;;;;9.70;100.00;100319.16;1741767;82;21802;-72
2021/04/15 04:10:45;;;;;;;33.90;21.63;;;;;;;9.34;100.00;100260.89;1758172;80;21897;-70
2021/04/15 04:13:30;;;;;;;28.33;20.90;;;;;;;9.06;100.00;100268.42;1711487;82;21319;-70
2021/04/15 04:16:29;;;;;;;33.77;23.13;;;;;;;8.82;100.00;100267.56;1751982;81;21841;-71
2021/04/15 04:19:22;;;;;;;31.67;22.30;;;;;;;8.65;100.00;100271.25;1728663;82;21320;-72
2021/04/15 04:22:20;;;;;;;31.68;23.73;;;;;;;8.49;100.00;100275.54;1716399;82;21440;-73
2021/04/15 04:24:55;;;;;;;33.77;21.70;;;;;;;8.37;100.00;100279.48;1734221;82;21606;-69
2021/04/15 04:27:35;;;;;;;36.43;22.90;;;;;;;8.27;100.00;100281.43;1738766;81;21695;-72
2021/04/15 04:30:35;;;;;;;35.80;23.67;;;;;;;8.15;100.00;100278.88;1739087;82;21174;-74
2021/04/15 04:33:05;;;;;;;30.43;20.70;;;;;;;8.07;100.00;100281.01;1755872;81;21438;-71
2021/04/15 04:35:38;;;;;;;30.90;21.00;;;;;;;8.02;100.00;100285.86;1748044;81;22880;-72
2021/04/15 04:38:08;;;;;;;30.97;19.98;;;;;;;7.94;100.00;100284.09;1744824;81;21550;-72
2021/04/15 04:40:40;;;;;;;30.93;21.33;;;;;;;7.89;100.00;100285.58;1729737;82;21250;-72
2021/04/15 04:43:23;;;;;;;41.03;22.87;;;;;;;7.86;100.00;100289.80;1746507;81;21331;-69
2021/04/15 04:46:00;;;;;;;26.90;18.27;;;;;;;7.81;100.00;100294.19;1740338;81;21554;-73
2021/04/15 04:48:36;;;;;;;29.57;18.70;;;;;;;7.78;100.00;100293.21;1747774;81;22311;-73
2021/04/15 04:51:11;;;;;;;29.47;18.27;;;;;;;7.75;100.00;100289.64;1742581;80;21341;-73
2021/04/15 04:53:40;;;;;;;32.60;19.87;;;;;;;7.74;100.00;100296.62;1771486;80;21306;-72
2021/04/15 04:56:28;;;;;;;27.40;19.23;;;;;;;7.73;100.00;100292.41;1729943;80;21797;-72
2021/04/15 04:59:00;;;;;;;27.00;19.80;;;;;;;7.77;100.00;100292.89;1716589;82;21896;-71
2021/04/15 05:01:28;;;;;;;27.93;19.43;;;;;;;7.84;100.00;100294.33;1742330;82;21438;-70
2021/04/15 05:04:03;;;;;;;28.55;19.37;;;;;;;7.89;100.00;100299.86;1664046;84;21402;-70
2021/04/15 05:06:34;;;;;;;22.07;16.60;;;;;;;7.93;100.00;100297.25;1702890;83;21108;-68
2021/04/15 05:09:26;;;;;;;20.17;15.10;;;;;;;7.99;100.00;100297.41;1716546;82;21745;-69
2021/04/15 05:11:56;;;;;;;19.37;14.93;;;;;;;8.10;100.00;100296.23;1698172;82;21234;-69
2021/04/15 05:14:28;;;;;;;18.33;15.57;;;;;;;8.23;100.00;100303.52;1759026;80;22526;-69
2021/04/15 05:17:07;;;;;;;14.97;12.40;;;;;;;8.35;100.00;100303.47;1761449;80;21368;-69
2021/04/15 05:19:36;;;;;;;17.93;14.87;;;;;;;8.44;100.00;100297.30;1764838;80;21835;-69
2021/04/15 05:22:06;;;;;;;18.93;14.03;;;;;;;8.52;100.00;100292.09;1770637;79;21838;-70
2021/04/15 05:24:50;;;;;;;21.20;15.50;;;;;;;8.57;100.00;100295.48;1739985;81;21744;-70
2021/04/15 05:27:19;;;;;;;20.47;14.40;;;;;;;8.59;100.00;100291.40;1695337;83;21403;-65
2021/04/15 05:29:48;;;;;;;20.37;15.00;;;;;;;8.63;100.00;100290.08;1708011;83;21481;-71
2021/04/15 05:32:17;;;;;;;18.23;15.23;;;;;;;8.64;100.00;100293.02;1736163;81;21456;-69
2021/04/15 05:34:50;;;;;;;34.27;24.20;;;;;;;8.64;100.00;100293.02;1735529;82;21379;-70
2021/04/15 05:37:20;;;;;;;25.50;22.80;;;;;;;8.59;100.00;100296.59;1711846;81;21325;-68
2021/04/15 05:39:49;;;;;;;29.02;26.05;;;;;;;8.51;100.00;100290.45;1721461;83;22141;-71
2021/04/15 05:42:26;;;;;;;31.20;24.80;;;;;;;8.46;100.00;100296.66;1711590;82;21504;-70
2021/04/15 05:45:00;;;;;;;32.40;25.00;;;;;;;8.41;100.00;100292.92;1704886;82;21379;-70
2021/04/15 05:47:36;;;;;;;29.33;22.50;;;;;;;8.40;100.00;100291.31;1691272;83;21328;-70
2021/04/15 05:50:10;;;;;;;28.17;23.23;;;;;;;8.39;100.00;100287.10;1701464;82;21389;-69
2021/04/15 05:52:45;;;;;;;27.70;23.53;;;;;;;8.35;100.00;100281.89;1736472;82;21331;-68
2021/04/15 05:55:30;;;;;;;31.73;22.13;;;;;;;8.34;100.00;100275.89;1833861;77;22798;-72
2021/04/15 05:58:05;;;;;;;25.50;20.60;;;;;;;8.27;100.00;100276.23;1803861;79;20947;-70
2021/04/15 06:00:39;;;;;;;28.03;21.93;;;;;;;8.26;100.00;100274.63;1742434;81;22136;-68
2021/04/15 06:03:28;;;;;;;25.43;20.53;;;;;;;8.25;100.00;100280.77;1695772;81;21318;-71
2021/04/15 06:06:08;;;;;;;23.10;17.63;;;;;;;8.27;100.00;100281.43;1770707;80;21352;-73
2021/04/15 06:08:40;;;;;;;23.43;17.70;;;;;;;8.29;100.00;100284.66;1739390;81;22714;-72
2021/04/15 06:11:34;;;;;;;28.63;22.73;;;;;;;8.33;100.00;100284.64;1776537;80;21127;-70
2021/04/15 06:14:10;;;;;;;27.80;24.50;;;;;;;8.41;100.00;100289.02;1731490;81;21183;-72
2021/04/15 06:16:47;;;;;;;27.30;23.17;;;;;;;8.52;100.00;100297.75;1729907;80;21216;-71
2021/04/15 06:19:18;;;;;;;23.10;19.87;;;;;;;8.62;100.00;100293.66;1750511;81;21138;-71
2021/04/15 06:21:58;;;;;;;28.13;21.03;;;;;;;8.72;100.00;100294.28;1750019;80;21502;-74
2021/04/15 06:24:29;;;;;;;30.88;23.00;;;;;;;8.83;100.00;100293.90;1745321;81;21767;-74
2021/04/15 06:27:00;;;;;;;27.80;19.00;;;;;;;8.99;100.00;100289.90;1761911;80;21701;-72
2021/04/15 06:29:42;;;;;;;27.83;20.77;;;;;;;9.14;100.00;100295.17;1739816;81;21895;-71
2021/04/15 06:32:20;;;;;;;23.90;16.83;;;;;;;9.25;100.00;100291.37;1710909;81;21398;-74
2021/04/15 06:34:48;;;;;;;20.73;14.57;;;;;;;9.38;100.00;100289.48;1752639;80;21278;-72
2021/04/15 06:37:25;;;;;;;15.43;12.50;;;;;;;9.57;100.00;100289.49;1753149;81;21184;-76
2021/04/15 06:39:58;;;;;;;16.47;11.83;;;;;;;9.74;100.00;100283.17;1737771;82;21286;-73
2021/04/15 06:42:44;;;;;;;14.70;10.77;;;;;;;9.90;100.00;100283.51;1702355;82;21258;-75
2021/04/15 06:45:45;;;;;;;12.47;10.80;;;;;;;10.02;100.00;100283.88;1748487;81;21390;-73
2021/04/15 06:48:27;;;;;;;15.40;11.77;;;;;;;10.20;100.00;100283.03;1761080;80;21528;-73
2021/04/15 06:51:24;;;;;;;18.33;13.10;;;;;;;10.20;100.00;100283.03;1705927;82;21432;-74
2021/04/15 06:54:33;;;;;;;18.73;15.23;;;;;;;10.19;100.00;100281.40;1725331;81;22371;-71
2021/04/15 06:57:08;;;;;;;18.73;14.97;;;;;;;10.13;100.00;100283.44;1721317;80;21281;-73
2021/04/15 07:00:17;;;;;;;21.33;15.80;;;;;;;10.11;100.00;100282.80;1760698;81;21054;-75
2021/04/15 07:03:36;;;;;;;22.53;16.50;;;;;;;10.09;100.00;100284.78;1755177;80;21945;-69
2021/04/15 07:06:12;;;;;;;27.47;17.20;;;;;;;10.04;100.00;100283.19;1753199;81;21259;-74
2021/04/15 07:09:15;;;;;;;23.53;17.20;;;;;;;10.01;100.00;100283.07;1739746;79;21447;-71
2021/04/15 07:11:58;;;;;;;24.60;18.13;;;;;;;9.96;100.00;100279.70;1724077;81;21455;-73
2021/04/15 07:15:25;;;;;;;23.63;17.37;;;;;;;9.93;100.00;100272.25;1748631;80;21873;-73
2021/04/15 07:18:52;;;;;;;24.73;16.53;;;;;;;9.98;100.00;100271.70;1729032;80;21235;-73
2021/04/15 07:22:00;;;;;;;24.00;16.57;;;;;;;10.12;100.00;100267.00;1738753;79;21368;-72
2021/04/15 07:25:01;;;;;;;21.93;14.73;;;;;;;10.27;100.00;100263.13;1744997;80;21451;-74
2021/04/15 07:28:10;;;;;;;21.17;14.43;;;;;;;10.38;100.00;100257.92;1741152;80;21663;-73
2021/04/15 07:31:07;;;;;;;19.93;13.40;;;;;;;10.48;100.00;100255.36;1655244;86;21559;-75
2021/04/15 07:34:20;;;;;;;17.10;12.57;;;;;;;10.60;100.00;100252.28;1694160;83;21521;-69
2021/04/15 07:37:22;;;;;;;16.30;12.40;;;;;;;10.69;100.00;100250.70;1715389;82;21679;-69
2021/04/15 07:39:59;;;;;;;18.30;12.90;;;;;;;10.87;100.00;100254.20;1749163;80;21627;-76
2021/04/15 07:43:21;;;;;;;17.73;12.17;;;;;;;11.25;100.00;100247.45;1741025;82;22301;-72
2021/04/15 07:46:28;;;;;;;22.53;13.47;;;;;;;11.25;100.00;100247.45;1795648;79;21477;-73
2021/04/15 07:49:50;;;;;;;20.40;11.57;;;;;;;11.88;100.00;100238.39;1806478;79;21680;-71
2021/04/15 07:52:54;;;;;;;14.50;10.43;;;;;;;12.57;100.00;100235.69;1796076;78;21754;-71
2021/04/15 07:56:06;;;;;;;13.17;9.07;;;;;;;13.34;100.00;100225.30;1774109;79;22199;-74
2021/04/15 07:59:00;;;;;;;13.00;8.70;;;;;;;13.86;100.00;100219.70;1730150;82;21618;-73
2021/04/15 08:01:54;;;;;;;12.23;8.60;;;;;;;14.04;100.00;100217.72;1729157;82;21677;-73
2021/04/15 08:04:55;;;;;;;13.13;9.40;;;;;;;13.91;100.00;100209.11;1786084;79;21289;-73
2021/04/15 08:08:03;;;;;;;13.30;9.20;;;;;;;13.99;100.00;100215.43;1796066;79;21560;-72
2021/04/15 08:11:15;;;;;;;14.10;10.23;;;;;;;14.00;100.00;100210.48;1830329;76;22779;-70
2021/04/15 08:14:27;;;;;;;16.67;10.33;;;;;;;13.90;100.00;100210.89;1824807;76;24497;-71
2021/04/15 08:17:16;;;;;;;14.63;10.20;;;;;;;13.81;100.00;100215.56;1739638;81;20978;-71
2021/04/15 08:20:29;;;;;;;15.87;10.40;;;;;;;13.69;100.00;100214.58;1744398;81;21215;-70
2021/04/15 08:23:41;;;;;;;12.30;9.77;;;;;;;13.47;100.00;100217.13;1737899;81;21220;-69
2021/04/15 08:26:34;;;;;;;14.60;10.08;;;;;;;13.09;100.00;100212.46;1733093;81;21084;-70
2021/04/15 08:29:30;;;;;;;12.93;10.00;;;;;;;12.51;100.00;100197.78;1758066;80;21663;-70
2021/04/15 08:32:17;;;;;;;13.23;9.93;;;;;;;12.51;100.00;100197.78;1696157;80;21068;-70
2021/04/15 08:35:14;;;;;;;15.47;11.03;;;;;;;12.34;100.00;100195.49;1735731;81;21841;-70
2021/04/15 08:38:25;;;;;;;16.00;11.43;;;;;;;12.23;100.00;100197.86;1747826;81;21010;-68
2021/04/15 08:41:32;;;;;;;17.60;13.03;;;;;;;12.08;100.00;100194.88;1695088;82;21163;-72
2021/04/15 08:44:38;;;;;;;13.97;9.97;;;;;;;12.01;100.00;100190.63;1715658;82;21733;-70
2021/04/15 08:47:47;;;;;;;16.87;12.77;;;;;;;12.01;100.00;100203.22;1721990;81;21100;-70
2021/04/15 08:50:44;;;;;;;19.30;11.60;;;;;;;12.00;100.00;100207.31;1680210;84;21922;-69
2021/04/15 08:54:00;;;;;;;13.47;9.77;;;;;;;12.00;100.00;100208.62;1710893;82;21912;-71
2021/04/15 08:56:37;;;;;;;14.50;9.83;;;;;;;12.01;100.00;100205.00;1702845;82;21940;-70
2021/04/15 08:59:17;;;;;;;13.20;10.13;;;;;;;11.99;100.00;100197.87;1712929;83;22389;-74
2021/04/15 09:02:05;;;;;;;15.23;10.40;;;;;;;11.96;100.00;100205.58;1707133;83;21895;-70
2021/04/15 09:05:05;;;;;;;15.00;9.47;;;;;;;11.92;100.00;100201.23;1724236;82;22937;-69
2021/04/15 09:08:02;;;;;;;12.27;9.20;;;;;;;11.86;100.00;100195.50;1717181;82;21855;-69
2021/04/15 09:10:52;;;;;;;11.20;9.33;;;;;;;11.79;100.00;100192.52;1703303;82;21931;-70
2021/04/15 09:13:32;;;;;;;12.20;9.00;;;;;;;11.70;100.00;100191.84;1715097;82;21859;-71
2021/04/15 09:16:16;;;;;;;13.48;9.58;;;;;;;11.63;100.00;100180.55;1717437;82;21891;-70
2021/04/15 09:19:11;;;;;;;14.67;11.30;;;;;;;11.55;100.00;100173.67;1715179;81;21156;-70
2021/04/15 09:21:59;;;;;;;14.30;10.37;;;;;;;11.55;100.00;100173.67;1704058;81;21488;-72
2021/04/15 09:24:43;;;;;;;13.77;10.30;;;;;;;11.55;100.00;100183.30;1703247;83;21912;-74
2021/04/15 09:27:46;;;;;;;15.87;11.17;;;;;;;11.56;100.00;100190.16;1721521;83;21695;-73
2021/04/15 09:30:48;;;;;;;12.13;9.67;;;;;;;11.58;100.00;100195.98;1663593;82;21900;-72
2021/04/15 09:33:37;;;;;;;11.23;9.73;;;;;;;11.72;100.00;100202.11;1706825;83;21922;-74
2021/04/15 09:36:39;;;;;;;13.23;10.77;;;;;;;11.99;100.00;100198.67;1684193;83;21818;-75
2021/04/15 09:39:43;;;;;;;15.80;11.43;;;;;;;12.37;100.00;100197.72;1696367;83;22647;-72
2021/04/15 09:42:28;;;;;;;14.73;10.07;;;;;;;12.77;100.00;100194.42;1720927;81;21735;-71
2021/04/15 09:45:29;;;;;;;10.40;8.97;;;;;;;13.14;100.00;100182.56;1752269;80;21702;-70
2021/04/15 09:48:23;;;;;;;12.87;10.40;;;;;;;13.14;100.00;100182.56;1754688;81;21018;-71
2021/04/15 09:50:57;;;;;;;11.10;9.10;;;;;;;13.18;100.00;100177.22;1701469;82;20986;-73
2021/04/15 09:53:50;;;;;;;12.53;8.97;;;;;;;13.18;100.00;100169.88;1710982;82;21030;-74
2021/04/15 09:57:04;;;;;;;13.57;9.57;;;;;;;13.14;100.00;100174.70;1682082;85;21295;-74
2021/04/15 10:00:22;;;;;;;12.03;10.07;;;;;;;13.08;100.00;100176.84;1657012;85;21702;-70
2021/04/15 10:03:13;;;;;;;12.27;9.07;;;;;;;13.03;100.00;100180.54;1678652;85;21375;-69
2021/04/15 10:06:16;;;;;;;12.87;8.70;;;;;;;13.10;100.00;100166.45;1746565;81;21275;-74
2021/04/15 10:08:58;;;;;;;10.03;8.87;;;;;;;13.26;100.00;100167.91;1723507;83;21218;-74
2021/04/15 10:11:53;;;;;;;12.00;10.27;;;;;;;13.52;100.00;100170.17;1701541;82;21144;-71
2021/04/15 10:14:34;;;;;;;10.23;9.13;;;;;;;13.70;100.00;100159.06;1705741;83;20962;-72
2021/04/15 10:17:25;;;;;;;12.20;9.90;;;;;;;13.84;100.00;100157.52;1692451;84;21386;-73
2021/04/15 10:20:10;;;;;;;12.23;9.93;;;;;;;13.92;100.00;100158.30;1697018;83;21030;-71
2021/04/15 10:23:08;;;;;;;12.30;10.13;;;;;;;13.88;100.00;100157.40;1693700;83;21085;-70
2021/04/15 10:25:49;;;;;;;12.80;11.40;;;;;;;13.81;100.00;100150.06;1682827;85;20967;-71
2021/04/15 10:28:45;;;;;;;14.97;11.07;;;;;;;13.74;100.00;100157.13;1685914;83;21016;-70
2021/04/15 10:31:23;;;;;;;14.83;11.57;;;;;;;13.72;100.00;100165.72;1694937;82;22140;-71
2021/04/15 10:34:12;;;;;;;15.30;10.53;;;;;;;13.72;100.00;100160.98;1673535;83;21699;-69
2021/04/15 10:37:12;;;;;;;14.63;12.10;;;;;;;13.72;100.00;100164.92;1694429;83;21233;-71
2021/04/15 10:40:18;;;;;;;11.90;10.20;;;;;;;13.85;100.00;100162.25;1701559;82;21621;-72
2021/04/15 10:43:03;;;;;;;14.77;11.17;;;;;;;14.00;100.00;100156.75;1679855;84;22345;-70
2021/04/15 10:45:57;;;;;;;19.23;12.17;;;;;;;14.01;100.00;100157.05;1704760;82;21230;-70
2021/04/15 10:48:38;;;;;;;17.50;13.10;;;;;;;13.92;100.00;100159.10;1702585;84;21128;-69
2021/04/15 10:51:30;;;;;;;15.98;12.35;;;;;;;13.79;100.00;100166.51;1706303;83;21725;-73
2021/04/15 10:54:26;;;;;;;16.23;12.37;;;;;;;13.66;100.00;100159.98;1688179;84;21253;-72
2021/04/15 10:57:03;;;;;;;16.53;13.27;;;;;;;13.64;100.00;100160.70;1713662;83;21077;-72
2021/04/15 10:59:37;;;;;;;15.93;12.77;;;;;;;13.66;100.00;100156.05;1702080;84;21372;-73
2021/04/15 11:02:33;;;;;;;16.27;12.70;;;;;;;13.74;100.00;100150.58;1706316;82;21108;-71
2021/04/15 11:05:31;;;;;;;12.67;11.17;;;;;;;13.85;100.00;100146.02;1674782;84;21115;-70
2021/04/15 11:08:09;;;;;;;15.77;13.03;;;;;;;14.03;100.00;100132.25;1710812;82;21209;-69
2021/04/15 11:10:37;;;;;;;16.27;11.60;;;;;;;14.29;100.00;100129.20;1730365;81;21215;-70
2021/04/15 11:13:24;;;;;;;12.33;10.63;;;;;;;14.55;100.00;100117.27;1729749;82;21390;-72
2021/04/15 11:15:55;;;;;;;14.07;11.03;;;;;;;14.81;100.00;100125.46;1707845;83;21171;-70
2021/04/15 11:18:32;;;;;;;11.33;9.80;;;;;;;15.00;100.00;100125.48;1722621;82;24130;-76
2021/04/15 11:21:20;;;;;;;11.83;9.40;;;;;;;15.13;100.00;100109.64;1718105;81;21586;-71
2021/04/15 11:23:53;;;;;;;13.87;11.87;;;;;;;15.20;100.00;100114.32;1705867;82;21784;-73
2021/04/15 11:26:46;;;;;;;11.43;9.30;;;;;;;15.17;100.00;100110.81;1713430;82;21344;-69
2021/04/15 11:29:42;;;;;;;16.50;13.90;;;;;;;15.14;100.00;100109.92;1715745;82;21302;-75
2021/04/15 11:32:30;;;;;;;10.83;9.27;;;;;;;15.10;100.00;100108.75;1712983;82;21093;-75
2021/04/15 11:35:16;;;;;;;13.10;11.00;;;;;;;15.04;100.00;100110.43;1709319;82;21156;-74
2021/04/15 11:37:47;;;;;;;11.33;9.97;;;;;;;14.93;100.00;100109.02;1705746;82;21670;-77
2021/04/15 11:40:39;;;;;;;10.60;9.50;;;;;;;14.91;100.00;100105.80;1711009;82;21210;-76
2021/04/15 11:43:36;;;;;;;12.13;10.80;;;;;;;14.92;100.00;100100.83;1701652;82;21212;-68
2021/04/15 11:46:25;;;;;;;15.50;14.00;;;;;;;14.96;100.00;100095.44;1680543;84;21089;-76
2021/04/15 11:49:16;;;;;;;11.03;9.28;;;;;;;15.01;100.00;100091.69;1703245;82;20958;-76
2021/04/15 11:52:24;;;;;;;11.50;10.40;;;;;;;15.04;100.00;100091.26;1704275;83;22321;-74
2021/04/15 11:54:57;;;;;;;10.27;8.50;;;;;;;15.07;100.00;100082.41;1686703;85;21211;-76
2021/04/15 11:57:39;;;;;;;9.87;8.10;;;;;;;15.16;100.00;100077.70;1687797;83;20970;-76
2021/04/15 12:00:21;;;;;;;9.10;6.80;;;;;;;15.20;100.00;100076.77;1707907;83;20962;-76
2021/04/15 12:02:58;;;;;;;9.28;7.87;;;;;;;15.20;100.00;100076.25;1691644;84;21239;-77
2021/04/15 12:05:31;;;;;;;12.77;10.10;;;;;;;15.13;100.00;100076.82;1663506;85;21248;-69
2021/04/15 12:08:26;;;;;;;14.40;12.47;;;;;;;15.00;100.00;100070.38;1682391;84;21260;-79
2021/04/15 12:11:08;;;;;;;11.73;9.40;;;;;;;14.85;100.00;100068.11;1706509;82;21187;-73
2021/04/15 12:13:46;;;;;;;;;;;;;;;14.66;100.00;100059.87;1709968;83;21077;-73
2021/04/15 12:16:48;;;;;;;10.77;9.53;;;;;;;14.52;100.00;100061.81;1693946;84;20241;-76
2021/04/15 12:19:39;;;;;;;9.73;8.77;;;;;;;14.63;100.00;100061.12;1702208;83;21100;-77
2021/04/15 12:22:50;;;;;;;10.67;9.57;;;;;;;15.03;100.00;100056.81;1735154;80;21359;-79
2021/04/15 12:25:41;;;;;;;11.70;10.50;;;;;;;15.41;100.00;100042.69;1736949;81;21168;-73
2021/04/15 12:28:35;;;;;;;10.27;9.27;;;;;;;15.71;100.00;100046.19;1732853;80;21116;-76
2021/04/15 12:31:36;;;;;;;12.73;10.67;;;;;;;15.91;100.00;100038.06;1651731;81;21280;-76
2021/04/15 12:34:42;;;;;;;10.73;9.63;;;;;;;15.86;100.00;100035.80;1734702;81;21086;-69
2021/04/15 12:37:27;;;;;;;9.50;8.43;;;;;;;15.70;100.00;100039.33;1741492;80;21017;-75
2021/04/15 12:40:12;;;;;;;9.10;8.20;;;;;;;15.49;100.00;100032.70;1705202;80;21681;-77
2021/04/15 12:42:43;;;;;;;9.63;8.17;;;;;;;15.24;100.00;100029.35;1707924;82;21207;-75
2021/04/15 12:45:42;;;;;;;9.97;8.53;;;;;;;15.03;100.00;100031.36;1711680;83;22377;-75
2021/04/15 12:48:15;;;;;;;13.90;11.20;;;;;;;14.93;100.00;100032.91;1693673;83;20989;-73
2021/04/15 12:50:45;;;;;;;14.03;11.37;;;;;;;14.83;100.00;100035.50;1703655;82;21604;-68
2021/04/15 12:53:13;;;;;;;15.10;12.50;;;;;;;14.79;100.00;100037.47;1708724;83;22437;-71
2021/04/15 12:55:41;;;;;;;13.23;11.03;;;;;;;14.80;100.00;100033.30;1680427;82;21129;-74
2021/04/15 12:58:10;;;;;;;12.57;11.07;;;;;;;14.82;100.00;100033.91;1712294;82;21205;-74
2021/04/15 13:00:45;;;;;;;11.70;10.40;;;;;;;14.83;100.00;100025.52;1711995;82;21701;-74
2021/04/15 13:03:32;;;;;;;14.47;11.23;;;;;;;14.86;100.00;100022.98;1701760;83;21546;-73
2021/04/15 13:06:08;;;;;;;12.30;10.10;;;;;;;14.92;100.00;100031.28;1693441;83;21231;-76
2021/04/15 13:08:40;;;;;;;13.13;10.63;;;;;;;15.15;100.00;100022.25;1713763;82;21123;-74
2021/04/15 13:11:23;;;;;;;11.23;9.63;;;;;;;15.41;100.00;100017.73;1710295;82;21149;-75
2021/04/15 13:13:57;;;;;;;12.27;9.53;;;;;;;15.68;100.00;100020.37;1707536;82;21244;-72
2021/04/15 13:16:42;;;;;;;9.60;8.53;;;;;;;15.87;100.00;100016.36;1705769;83;21203;-77
2021/04/15 13:19:25;;;;;;;10.30;8.17;;;;;;;15.93;100.00;100022.05;1683257;82;21099;-70
2021/04/15 13:22:10;;;;;;;10.45;8.13;;;;;;;15.99;100.00;100014.59;1712057;82;21148;-70
2021/04/15 13:24:53;;;;;;;12.70;8.57;;;;;;;16.01;100.00;100019.90;1702271;83;21065;-70
2021/04/15 13:27:38;;;;;;;10.53;7.93;;;;;;;15.96;100.00;100016.36;1703600;83;21196;-70
2021/04/15 13:30:29;;;;;;;34.53;26.20;;;;;;;15.88;100.00;100019.30;1706425;82;21279;-71
2021/04/15 13:33:19;;;;;;;15.80;12.67;;;;;;;15.80;100.00;100012.02;1706815;82;21227;-70
2021/04/15 13:35:56;;;;;;;14.03;9.73;;;;;;;15.76;100.00;100009.55;1704334;82;21590;-71
2021/04/15 13:38:37;;;;;;;9.67;6.47;;;;;;;15.67;100.00;100015.33;1704186;82;21029;-71
2021/04/15 13:41:25;;;;;;;11.18;6.03;;;;;;;15.50;100.00;100013.28;1703986;82;21139;-70
2021/04/15 13:44:09;;;;;;;46.13;41.15;;;;;;;15.25;100.00;100019.13;1703219;82;22431;-69
2021/04/15 13:46:41;;;;;;;170.85;118.93;;;;;;;14.95;100.00;100024.30;1700642;82;21191;-70
2021/04/15 13:49:19;;;;;;;174.00;149.40;;;;;;;14.72;100.00;100032.78;1690071;82;21018;-68
2021/04/15 13:51:52;;;;;;;24.03;21.27;;;;;;;14.39;100.00;100031.70;1691739;82;21160;-67
2021/04/15 13:54:36;;;;;;;12.47;8.67;;;;;;;14.02;100.00;100042.05;1692502;82;21120;-68
2021/04/15 13:57:15;;;;;;;10.73;5.90;;;;;;;13.73;100.00;100073.52;1689928;82;21494;-64
2021/04/15 13:59:54;;;;;;;6.77;4.10;;;;;;;13.23;100.00;100071.46;1709642;82;21033;-63
2021/04/15 14:02:30;;;;;;;10.60;4.40;;;;;;;12.17;100.00;100080.57;1701478;82;21038;-63
2021/04/15 14:05:03;;;;;;;7.83;4.53;;;;;;;11.31;100.00;100073.15;1671022;83;21536;-62
2021/04/15 14:07:39;;;;;;;6.33;4.30;;;;;;;10.90;100.00;100083.00;1635292;85;21952;-62
2021/04/15 14:10:18;;;;;;;9.67;3.63;;;;;;;10.74;100.00;100072.86;1641129;85;21914;-60
2021/04/15 14:13:15;;;;;;;7.67;3.80;;;;;;;10.82;100.00;100077.93;1664113;84;22257;-62
2021/04/15 14:15:48;;;;;;;7.07;4.37;;;;;;;11.07;100.00;100078.83;1674409;85;21150;-62
2021/04/15 14:18:33;;;;;;;9.23;4.87;;;;;;;11.41;100.00;100072.81;1663520;84;22242;-61
2021/04/15 14:21:24;;;;;;;7.57;4.13;;;;;;;11.77;100.00;100077.78;1642890;85;21869;-63
2021/04/15 14:24:07;;;;;;;7.47;5.03;;;;;;;12.51;100.00;100079.62;1645208;85;21833;-63
2021/04/15 14:26:45;;;;;;;6.58;4.62;;;;;;;12.51;100.00;100079.62;1665436;85;21049;-63
2021/04/15 14:29:37;;;;;;;30.77;27.47;;;;;;;12.81;100.00;100077.92;1672085;84;21196;-63
2021/04/15 14:32:38;;;;;;;7.47;5.50;;;;;;;13.10;100.00;100074.86;1657150;84;20999;-63
2021/04/15 14:35:30;;;;;;;8.53;6.72;;;;;;;13.37;100.00;100069.12;1718999;81;21240;-63
2021/04/15 14:38:04;;;;;;;7.60;4.65;;;;;;;13.56;100.00;100069.23;1745836;80;21375;-63
2021/04/15 14:40:44;;;;;;;5.73;4.50;;;;;;;13.71;100.00;100068.48;1743257;80;22005;-64
2021/04/15 14:43:38;;;;;;;6.23;4.80;;;;;;;13.85;100.00;100070.54;1748408;80;21613;-64
2021/04/15 14:46:26;;;;;;;9.63;5.60;;;;;;;13.97;100.00;100060.20;1747703;80;21120;-64
2021/04/15 14:48:55;;;;;;;14.23;11.97;;;;;;;14.13;100.00;100062.34;1738142;80;21063;-64
2021/04/15 14:51:27;;;;;;;6.70;5.60;;;;;;;14.30;100.00;100067.37;1747338;80;22947;-64
2021/04/15 14:53:56;;;;;;;7.60;5.60;;;;;;;14.43;100.00;100066.97;1748216;80;21230;-65
2021/04/15 14:56:31;;;;;;;7.17;5.37;;;;;;;14.56;100.00;100065.09;1745192;80;21084;-65
2021/04/15 14:59:07;;;;;;;6.00;4.30;;;;;;;14.65;100.00;100060.38;1744135;80;21108;-66
2021/04/15 15:01:40;;;;;;;6.73;5.37;;;;;;;14.68;100.00;100061.27;1742808;80;21445;-66
2021/04/15 15:04:28;;;;;;;7.63;5.37;;;;;;;14.73;100.00;100049.61;1747926;80;21384;-67
2021/04/15 15:06:56;;;;;;;6.20;5.30;;;;;;;14.86;100.00;100055.78;1737185;80;22195;-67
2021/04/15 15:09:33;;;;;;;8.40;5.83;;;;;;;14.96;100.00;100058.70;1731673;80;21115;-66
2021/04/15 15:12:04;;;;;;;8.47;6.17;;;;;;;14.94;100.00;100056.30;1726277;80;21102;-67
2021/04/15 15:14:42;;;;;;;7.37;5.70;;;;;;;14.80;100.00;100055.61;1732823;80;21148;-67
2021/04/15 15:17:19;;;;;;;8.67;6.10;;;;;;;14.64;100.00;100044.36;1734222;80;21306;-65
2021/04/15 15:19:47;;;;;;;8.20;5.27;;;;;;;14.46;100.00;100052.12;1736929;80;21044;-69
2021/04/15 15:22:37;;;;;;;8.47;5.50;;;;;;;14.25;100.00;100046.75;1740432;80;21172;-68
2021/04/15 15:25:30;;;;;;;6.80;5.30;;;;;;;14.03;100.00;100052.82;1730733;80;21767;-69
2021/04/15 15:27:59;;;;;;;7.10;5.37;;;;;;;13.73;100.00;100051.26;1728126;80;21568;-66
2021/04/15 15:30:37;;;;;;;10.43;6.07;;;;;;;13.42;100.00;100052.78;1731088;80;22304;-66